Accueil
METAR-TAF:

METAR-TAF

Aéroports :

Lyon / Saint Exupéry, France

Aéroport de Lyon-Saint-Exupéry

latitude: 45-44N, longitude: 005-05E, altitude: 248 m

Observation

Le bulletin a été fait il y a 15 minutes, à 09:00 UTC
Vent 10 kt de nord/nord-ouest, variant entre ouest/nord-ouest et nord
Température 20°C
Humidité 60%
Pression 1022 hPa
Visibilité 10 km ou plus
Quelques nuages à une hauteur de 2700 ft

METAR: LFLL 190900Z 33010KT 300V360 9999 FEW027 20/12 Q1022 NOSIG

Heure: 11:15 (09:15 UTC)

Prévision

Le bulletin a été fait il y a 4 heures et 15 minutes, à 05:00 UTC
Prévision valable du 19 à 06 UTC au 20 à 12 UTC
Vent 10 kt de nord
Visibilité 10 km ou plus
Nuages épars à une hauteur de 4000 ft

TAF: LFLL 190500Z 1906/2012 36010KT 9999 SCT040

Observations et prévisions météorologiques de plus de 4000 aéroports (messages METAR et TAF).

Les stations disponibles sont représentées par des disques jaunes et rouges sur la carte.

Passer la souris dessus pour voir le nom de la station.

Cliquer dessus pour voir les observations et prévisions météorologiques.

Pour changer de carte: cliquez sur les boutons verts avec une croix noire pour zoomer, sur le bouton vert avec un tiret pour effectuer un zoom arrière, ou sur les flèches vertes pour les cartes adjacentes.


METAR-TAF: